sensor_id;sensor_type;location;lat;lon;timestamp;temperature;humidity
45945;DHT22;31655;48.972;10.686;2024-02-14T00:02:02;1.00;99.90
45945;DHT22;31655;48.972;10.686;2024-02-14T00:04:31;1.00;99.90
45945;DHT22;31655;48.972;10.686;2024-02-14T00:06:57;0.80;99.90
45945;DHT22;31655;48.972;10.686;2024-02-14T00:09:22;0.80;99.90
45945;DHT22;31655;48.972;10.686;2024-02-14T00:11:48;0.70;99.90
45945;DHT22;31655;48.972;10.686;2024-02-14T00:14:13;0.60;99.90
45945;DHT22;31655;48.972;10.686;2024-02-14T00:16:39;0.60;99.90
45945;DHT22;31655;48.972;10.686;2024-02-14T00:19:05;0.50;99.90
45945;DHT22;31655;48.972;10.686;2024-02-14T00:21:31;0.50;99.90
45945;DHT22;31655;48.972;10.686;2024-02-14T00:23:57;0.50;99.90
45945;DHT22;31655;48.972;10.686;2024-02-14T00:26:24;0.50;99.90
45945;DHT22;31655;48.972;10.686;2024-02-14T00:28:49;0.50;99.90
45945;DHT22;31655;48.972;10.686;2024-02-14T00:31:16;0.50;99.90
45945;DHT22;31655;48.972;10.686;2024-02-14T00:33:42;0.60;99.90
45945;DHT22;31655;48.972;10.686;2024-02-14T00:36:09;0.70;99.90
45945;DHT22;31655;48.972;10.686;2024-02-14T00:38:35;0.70;99.90
45945;DHT22;31655;48.972;10.686;2024-02-14T00:41:01;0.80;99.90
45945;DHT22;31655;48.972;10.686;2024-02-14T00:43:28;3.20;99.90
45945;DHT22;31655;48.972;10.686;2024-02-14T00:45:54;0.90;99.90
45945;DHT22;31655;48.972;10.686;2024-02-14T00:48:22;1.00;99.90
45945;DHT22;31655;48.972;10.686;2024-02-14T00:50:48;1.00;99.90
45945;DHT22;31655;48.972;10.686;2024-02-14T00:53:13;1.00;99.90
45945;DHT22;31655;48.972;10.686;2024-02-14T00:55:42;1.00;99.90
45945;DHT22;31655;48.972;10.686;2024-02-14T00:58:09;1.00;99.90
45945;DHT22;31655;48.972;10.686;2024-02-14T01:00:35;0.90;99.90
45945;DHT22;31655;48.972;10.686;2024-02-14T01:03:04;-0.20;99.90
45945;DHT22;31655;48.972;10.686;2024-02-14T01:07:59;0.70;99.90
45945;DHT22;31655;48.972;10.686;2024-02-14T01:10:25;0.70;99.90
45945;DHT22;31655;48.972;10.686;2024-02-14T01:12:52;0.80;99.90
45945;DHT22;31655;48.972;10.686;2024-02-14T01:15:20;0.80;99.90
45945;DHT22;31655;48.972;10.686;2024-02-14T01:17:48;0.80;99.90
45945;DHT22;31655;48.972;10.686;2024-02-14T01:20:14;0.90;99.90
45945;DHT22;31655;48.972;10.686;2024-02-14T01:22:40;0.90;99.90
45945;DHT22;31655;48.972;10.686;2024-02-14T01:25:06;0.90;99.90
45945;DHT22;31655;48.972;10.686;2024-02-14T01:29:59;0.90;99.90
45945;DHT22;31655;48.972;10.686;2024-02-14T01:32:25;1.00;99.90
45945;DHT22;31655;48.972;10.686;2024-02-14T01:34:53;1.00;99.90
45945;DHT22;31655;48.972;10.686;2024-02-14T01:37:20;0.80;99.90
45945;DHT22;31655;48.972;10.686;2024-02-14T01:39:46;0.90;99.90
45945;DHT22;31655;48.972;10.686;2024-02-14T01:42:12;0.90;99.90
45945;DHT22;31655;48.972;10.686;2024-02-14T01:44:40;0.80;99.90
45945;DHT22;31655;48.972;10.686;2024-02-14T01:47:07;0.80;99.90
45945;DHT22;31655;48.972;10.686;2024-02-14T01:49:35;0.90;99.90
45945;DHT22;31655;48.972;10.686;2024-02-14T01:52:02;0.80;99.90
45945;DHT22;31655;48.972;10.686;2024-02-14T01:54:29;1.00;99.90
45945;DHT22;31655;48.972;10.686;2024-02-14T01:56:56;1.10;99.90
45945;DHT22;31655;48.972;10.686;2024-02-14T01:59:24;1.20;99.90
45945;DHT22;31655;48.972;10.686;2024-02-14T02:01:51;1.30;99.90
45945;DHT22;31655;48.972;10.686;2024-02-14T02:04:17;1.30;99.90
45945;DHT22;31655;48.972;10.686;2024-02-14T02:06:44;1.30;99.90
45945;DHT22;31655;48.972;10.686;2024-02-14T02:09:10;1.30;99.90
45945;DHT22;31655;48.972;10.686;2024-02-14T02:11:52;1.30;99.90
45945;DHT22;31655;48.972;10.686;2024-02-14T02:14:21;1.30;99.90
45945;DHT22;31655;48.972;10.686;2024-02-14T02:16:48;0.50;99.90
45945;DHT22;31655;48.972;10.686;2024-02-14T02:19:15;2.50;99.90
45945;DHT22;31655;48.972;10.686;2024-02-14T02:21:42;1.20;99.90
45945;DHT22;31655;48.972;10.686;2024-02-14T02:24:15;1.30;99.90
45945;DHT22;31655;48.972;10.686;2024-02-14T02:26:40;1.30;99.90
45945;DHT22;31655;48.972;10.686;2024-02-14T02:29:07;1.20;99.90
45945;DHT22;31655;48.972;10.686;2024-02-14T02:31:34;1.30;99.90
45945;DHT22;31655;48.972;10.686;2024-02-14T02:34:00;1.30;99.90
45945;DHT22;31655;48.972;10.686;2024-02-14T02:36:25;1.30;99.90
45945;DHT22;31655;48.972;10.686;2024-02-14T02:38:55;1.40;99.90
45945;DHT22;31655;48.972;10.686;2024-02-14T02:41:21;1.40;99.90
45945;DHT22;31655;48.972;10.686;2024-02-14T02:43:47;1.40;99.90
45945;DHT22;31655;48.972;10.686;2024-02-14T02:46:16;1.40;99.90
45945;DHT22;31655;48.972;10.686;2024-02-14T02:48:42;1.50;99.90
45945;DHT22;31655;48.972;10.686;2024-02-14T02:51:10;1.60;99.90
45945;DHT22;31655;48.972;10.686;2024-02-14T02:53:37;1.60;99.90
45945;DHT22;31655;48.972;10.686;2024-02-14T02:56:03;1.70;99.90
45945;DHT22;31655;48.972;10.686;2024-02-14T02:58:29;1.70;99.90
45945;DHT22;31655;48.972;10.686;2024-02-14T03:05:53;1.60;99.90
45945;DHT22;31655;48.972;10.686;2024-02-14T03:08:21;1.50;99.90
45945;DHT22;31655;48.972;10.686;2024-02-14T03:10:51;2.90;99.90
45945;DHT22;31655;48.972;10.686;2024-02-14T03:13:19;1.50;99.90
45945;DHT22;31655;48.972;10.686;2024-02-14T03:15:45;1.30;99.90
45945;DHT22;31655;48.972;10.686;2024-02-14T03:18:12;1.50;99.90
45945;DHT22;31655;48.972;10.686;2024-02-14T03:20:38;1.50;99.90
45945;DHT22;31655;48.972;10.686;2024-02-14T03:23:04;1.50;99.90
45945;DHT22;31655;48.972;10.686;2024-02-14T03:25:29;1.50;99.90
45945;DHT22;31655;48.972;10.686;2024-02-14T03:27:55;1.60;99.90
45945;DHT22;31655;48.972;10.686;2024-02-14T03:30:25;1.60;99.90
45945;DHT22;31655;48.972;10.686;2024-02-14T03:32:50;1.80;99.90
45945;DHT22;31655;48.972;10.686;2024-02-14T03:35:17;1.80;99.90
45945;DHT22;31655;48.972;10.686;2024-02-14T03:37:46;1.90;99.90
45945;DHT22;31655;48.972;10.686;2024-02-14T03:40:14;2.00;99.90
45945;DHT22;31655;48.972;10.686;2024-02-14T03:42:40;2.00;99.90
45945;DHT22;31655;48.972;10.686;2024-02-14T03:45:09;2.00;99.90
45945;DHT22;31655;48.972;10.686;2024-02-14T03:47:35;2.00;99.90
45945;DHT22;31655;48.972;10.686;2024-02-14T03:50:01;1.90;99.90
45945;DHT22;31655;48.972;10.686;2024-02-14T03:52:31;2.00;99.90
45945;DHT22;31655;48.972;10.686;2024-02-14T03:55:00;2.10;99.90
45945;DHT22;31655;48.972;10.686;2024-02-14T03:59:54;2.30;99.90
45945;DHT22;31655;48.972;10.686;2024-02-14T04:02:22;4.00;99.90
45945;DHT22;31655;48.972;10.686;2024-02-14T04:04:48;3.70;99.90
45945;DHT22;31655;48.972;10.686;2024-02-14T04:07:14;2.40;99.90
45945;DHT22;31655;48.972;10.686;2024-02-14T04:09:40;2.40;99.90
45945;DHT22;31655;48.972;10.686;2024-02-14T04:12:05;2.40;99.90
45945;DHT22;31655;48.972;10.686;2024-02-14T04:14:31;2.40;99.90
45945;DHT22;31655;48.972;10.686;2024-02-14T04:17:04;2.40;99.90
45945;DHT22;31655;48.972;10.686;2024-02-14T04:19:29;2.40;99.90
45945;DHT22;31655;48.972;10.686;2024-02-14T04:21:55;2.40;99.90
45945;DHT22;31655;48.972;10.686;2024-02-14T04:24:20;2.40;99.90
45945;DHT22;31655;48.972;10.686;2024-02-14T04:26:46;2.40;99.90
45945;DHT22;31655;48.972;10.686;2024-02-14T04:29:14;2.40;99.90
45945;DHT22;31655;48.972;10.686;2024-02-14T04:31:43;2.50;99.90
45945;DHT22;31655;48.972;10.686;2024-02-14T04:34:08;2.50;99.90
45945;DHT22;31655;48.972;10.686;2024-02-14T04:36:37;2.50;99.90
45945;DHT22;31655;48.972;10.686;2024-02-14T04:39:02;2.60;99.90
45945;DHT22;31655;48.972;10.686;2024-02-14T04:41:30;2.60;99.90
45945;DHT22;31655;48.972;10.686;2024-02-14T04:43:57;2.30;99.90
45945;DHT22;31655;48.972;10.686;2024-02-14T04:46:23;2.60;99.90
45945;DHT22;31655;48.972;10.686;2024-02-14T04:48:49;2.50;99.90
45945;DHT22;31655;48.972;10.686;2024-02-14T04:51:15;2.50;99.90
45945;DHT22;31655;48.972;10.686;2024-02-14T04:53:41;1.60;99.90
45945;DHT22;31655;48.972;10.686;2024-02-14T04:56:07;4.20;99.90
45945;DHT22;31655;48.972;10.686;2024-02-14T04:58:36;2.70;99.90
45945;DHT22;31655;48.972;10.686;2024-02-14T05:01:01;2.80;99.90
45945;DHT22;31655;48.972;10.686;2024-02-14T05:03:27;2.80;99.90
45945;DHT22;31655;48.972;10.686;2024-02-14T05:05:54;2.90;99.90
45945;DHT22;31655;48.972;10.686;2024-02-14T05:08:20;2.90;99.90
45945;DHT22;31655;48.972;10.686;2024-02-14T05:10:46;2.90;99.90
45945;DHT22;31655;48.972;10.686;2024-02-14T05:13:11;2.90;99.90
45945;DHT22;31655;48.972;10.686;2024-02-14T05:15:38;2.80;99.90
45945;DHT22;31655;48.972;10.686;2024-02-14T05:18:09;2.90;99.90
45945;DHT22;31655;48.972;10.686;2024-02-14T05:20:35;2.90;99.90
45945;DHT22;31655;48.972;10.686;2024-02-14T05:23:01;2.90;99.90
45945;DHT22;31655;48.972;10.686;2024-02-14T05:25:27;2.90;99.90
45945;DHT22;31655;48.972;10.686;2024-02-14T05:27:55;3.00;99.90
45945;DHT22;31655;48.972;10.686;2024-02-14T05:30:22;3.10;99.90
45945;DHT22;31655;48.972;10.686;2024-02-14T05:32:47;3.10;99.90
45945;DHT22;31655;48.972;10.686;2024-02-14T05:35:14;3.10;99.90
45945;DHT22;31655;48.972;10.686;2024-02-14T05:37:40;3.10;99.90
45945;DHT22;31655;48.972;10.686;2024-02-14T05:40:06;3.10;99.90
45945;DHT22;31655;48.972;10.686;2024-02-14T05:42:32;3.10;99.90
45945;DHT22;31655;48.972;10.686;2024-02-14T05:44:59;3.00;99.90
45945;DHT22;31655;48.972;10.686;2024-02-14T05:47:25;3.00;99.90
45945;DHT22;31655;48.972;10.686;2024-02-14T05:49:51;3.50;99.90
45945;DHT22;31655;48.972;10.686;2024-02-14T05:52:16;3.00;99.90
45945;DHT22;31655;48.972;10.686;2024-02-14T05:54:44;3.00;99.90
45945;DHT22;31655;48.972;10.686;2024-02-14T05:57:10;3.00;99.90
45945;DHT22;31655;48.972;10.686;2024-02-14T05:59:36;3.00;99.90
45945;DHT22;31655;48.972;10.686;2024-02-14T06:02:02;3.00;99.90
45945;DHT22;31655;48.972;10.686;2024-02-14T06:04:31;3.10;99.90
45945;DHT22;31655;48.972;10.686;2024-02-14T06:06:57;3.10;99.90
45945;DHT22;31655;48.972;10.686;2024-02-14T06:09:22;3.20;99.90
45945;DHT22;31655;48.972;10.686;2024-02-14T06:11:50;3.10;99.90
45945;DHT22;31655;48.972;10.686;2024-02-14T06:14:17;3.20;99.90
45945;DHT22;31655;48.972;10.686;2024-02-14T06:16:44;3.20;99.90
45945;DHT22;31655;48.972;10.686;2024-02-14T06:19:09;3.20;99.90
45945;DHT22;31655;48.972;10.686;2024-02-14T06:21:36;3.20;99.90
45945;DHT22;31655;48.972;10.686;2024-02-14T06:24:02;3.30;99.90
45945;DHT22;31655;48.972;10.686;2024-02-14T06:26:30;3.30;99.90
45945;DHT22;31655;48.972;10.686;2024-02-14T06:28:56;3.30;99.90
45945;DHT22;31655;48.972;10.686;2024-02-14T06:31:22;3.40;99.90
45945;DHT22;31655;48.972;10.686;2024-02-14T06:33:48;3.40;99.90
45945;DHT22;31655;48.972;10.686;2024-02-14T06:36:13;3.50;99.90
45945;DHT22;31655;48.972;10.686;2024-02-14T06:38:39;3.50;99.90
45945;DHT22;31655;48.972;10.686;2024-02-14T06:41:05;3.50;99.90
45945;DHT22;31655;48.972;10.686;2024-02-14T06:43:31;3.40;99.90
45945;DHT22;31655;48.972;10.686;2024-02-14T06:45:57;3.50;99.90
45945;DHT22;31655;48.972;10.686;2024-02-14T06:48:25;3.50;99.90
45945;DHT22;31655;48.972;10.686;2024-02-14T06:50:51;3.60;99.90
45945;DHT22;31655;48.972;10.686;2024-02-14T06:53:17;3.60;99.90
45945;DHT22;31655;48.972;10.686;2024-02-14T06:55:43;3.60;99.90
45945;DHT22;31655;48.972;10.686;2024-02-14T06:58:08;3.60;99.90
45945;DHT22;31655;48.972;10.686;2024-02-14T07:00:34;3.70;99.90
45945;DHT22;31655;48.972;10.686;2024-02-14T07:02:59;3.70;99.90
45945;DHT22;31655;48.972;10.686;2024-02-14T07:05:26;3.70;99.90
45945;DHT22;31655;48.972;10.686;2024-02-14T07:07:53;3.70;99.90
45945;DHT22;31655;48.972;10.686;2024-02-14T07:10:19;3.70;99.90
45945;DHT22;31655;48.972;10.686;2024-02-14T07:12:44;3.80;99.90
45945;DHT22;31655;48.972;10.686;2024-02-14T07:15:10;3.90;99.90
45945;DHT22;31655;48.972;10.686;2024-02-14T07:17:36;3.90;99.90
45945;DHT22;31655;48.972;10.686;2024-02-14T07:20:04;4.00;99.90
45945;DHT22;31655;48.972;10.686;2024-02-14T07:22:30;4.20;99.90
45945;DHT22;31655;48.972;10.686;2024-02-14T07:24:56;4.40;99.90
45945;DHT22;31655;48.972;10.686;2024-02-14T07:27:21;4.40;99.90
45945;DHT22;31655;48.972;10.686;2024-02-14T07:29:47;4.50;99.90
45945;DHT22;31655;48.972;10.686;2024-02-14T07:32:13;4.60;99.90
45945;DHT22;31655;48.972;10.686;2024-02-14T07:34:38;4.70;99.90
45945;DHT22;31655;48.972;10.686;2024-02-14T07:37:07;4.90;99.90
45945;DHT22;31655;48.972;10.686;2024-02-14T07:39:33;4.90;99.90
45945;DHT22;31655;48.972;10.686;2024-02-14T07:42:00;5.10;99.90
45945;DHT22;31655;48.972;10.686;2024-02-14T07:44:26;5.40;99.90
45945;DHT22;31655;48.972;10.686;2024-02-14T07:46:51;5.70;99.90
45945;DHT22;31655;48.972;10.686;2024-02-14T07:49:18;5.80;99.90
45945;DHT22;31655;48.972;10.686;2024-02-14T07:51:45;5.70;99.90
45945;DHT22;31655;48.972;10.686;2024-02-14T07:54:10;5.60;99.90
45945;DHT22;31655;48.972;10.686;2024-02-14T07:56:36;5.70;99.90
45945;DHT22;31655;48.972;10.686;2024-02-14T07:59:01;5.70;99.90
45945;DHT22;31655;48.972;10.686;2024-02-14T08:01:27;5.60;99.90
45945;DHT22;31655;48.972;10.686;2024-02-14T08:03:53;5.50;99.90
45945;DHT22;31655;48.972;10.686;2024-02-14T08:06:20;5.50;99.90
45945;DHT22;31655;48.972;10.686;2024-02-14T08:08:45;5.40;99.90
45945;DHT22;31655;48.972;10.686;2024-02-14T08:11:11;5.20;99.90
45945;DHT22;31655;48.972;10.686;2024-02-14T08:13:36;5.10;99.90
45945;DHT22;31655;48.972;10.686;2024-02-14T08:16:05;5.10;99.90
45945;DHT22;31655;48.972;10.686;2024-02-14T08:18:32;5.20;99.90
45945;DHT22;31655;48.972;10.686;2024-02-14T08:20:57;5.30;99.90
45945;DHT22;31655;48.972;10.686;2024-02-14T08:23:23;5.50;99.90
45945;DHT22;31655;48.972;10.686;2024-02-14T08:25:49;4.60;99.90
45945;DHT22;31655;48.972;10.686;2024-02-14T08:28:15;5.60;99.90
45945;DHT22;31655;48.972;10.686;2024-02-14T08:30:42;5.70;99.90
45945;DHT22;31655;48.972;10.686;2024-02-14T08:33:08;5.80;99.90
45945;DHT22;31655;48.972;10.686;2024-02-14T08:35:36;5.70;99.90
45945;DHT22;31655;48.972;10.686;2024-02-14T08:38:01;5.70;99.90
45945;DHT22;31655;48.972;10.686;2024-02-14T08:40:27;5.60;99.90
45945;DHT22;31655;48.972;10.686;2024-02-14T08:42:52;5.80;99.90
45945;DHT22;31655;48.972;10.686;2024-02-14T08:45:18;5.90;99.90
45945;DHT22;31655;48.972;10.686;2024-02-14T08:47:44;5.90;99.90
45945;DHT22;31655;48.972;10.686;2024-02-14T08:50:10;6.00;99.90
45945;DHT22;31655;48.972;10.686;2024-02-14T08:52:35;6.20;99.90
45945;DHT22;31655;48.972;10.686;2024-02-14T08:55:03;6.20;99.90
45945;DHT22;31655;48.972;10.686;2024-02-14T08:57:29;6.20;99.90
45945;DHT22;31655;48.972;10.686;2024-02-14T08:59:56;6.40;99.90
45945;DHT22;31655;48.972;10.686;2024-02-14T09:02:22;6.60;99.90
45945;DHT22;31655;48.972;10.686;2024-02-14T09:04:48;6.50;99.90
45945;DHT22;31655;48.972;10.686;2024-02-14T09:07:13;6.50;99.90
45945;DHT22;31655;48.972;10.686;2024-02-14T09:09:39;6.70;99.90
45945;DHT22;31655;48.972;10.686;2024-02-14T09:12:05;6.80;99.90
45945;DHT22;31655;48.972;10.686;2024-02-14T09:14:31;7.00;99.90
45945;DHT22;31655;48.972;10.686;2024-02-14T09:16:57;7.10;99.90
45945;DHT22;31655;48.972;10.686;2024-02-14T09:19:23;7.80;99.90
45945;DHT22;31655;48.972;10.686;2024-02-14T09:21:49;9.10;99.90
45945;DHT22;31655;48.972;10.686;2024-02-14T09:24:14;8.50;99.90
45945;DHT22;31655;48.972;10.686;2024-02-14T09:26:40;8.40;99.90
45945;DHT22;31655;48.972;10.686;2024-02-14T09:29:06;8.30;99.90
45945;DHT22;31655;48.972;10.686;2024-02-14T09:31:31;8.10;99.90
45945;DHT22;31655;48.972;10.686;2024-02-14T09:33:57;8.50;99.90
45945;DHT22;31655;48.972;10.686;2024-02-14T09:36:24;8.90;99.90
45945;DHT22;31655;48.972;10.686;2024-02-14T09:38:51;9.90;99.90
45945;DHT22;31655;48.972;10.686;2024-02-14T09:41:25;11.30;99.90
45945;DHT22;31655;48.972;10.686;2024-02-14T09:43:54;11.80;99.90
45945;DHT22;31655;48.972;10.686;2024-02-14T09:46:24;12.30;99.90
45945;DHT22;31655;48.972;10.686;2024-02-14T09:48:50;13.20;99.90
45945;DHT22;31655;48.972;10.686;2024-02-14T09:51:17;12.10;99.90
45945;DHT22;31655;48.972;10.686;2024-02-14T09:53:44;12.30;99.90
45945;DHT22;31655;48.972;10.686;2024-02-14T09:56:11;12.80;99.90
45945;DHT22;31655;48.972;10.686;2024-02-14T09:58:37;11.10;99.90
45945;DHT22;31655;48.972;10.686;2024-02-14T10:01:04;12.60;99.90
45945;DHT22;31655;48.972;10.686;2024-02-14T10:03:30;10.50;99.90
45945;DHT22;31655;48.972;10.686;2024-02-14T10:05:56;10.50;99.90
45945;DHT22;31655;48.972;10.686;2024-02-14T10:08:22;10.10;99.90
45945;DHT22;31655;48.972;10.686;2024-02-14T10:10:49;10.10;99.90
45945;DHT22;31655;48.972;10.686;2024-02-14T10:13:15;10.00;99.90
45945;DHT22;31655;48.972;10.686;2024-02-14T10:15:41;9.70;99.90
45945;DHT22;31655;48.972;10.686;2024-02-14T10:18:07;10.70;99.90
45945;DHT22;31655;48.972;10.686;2024-02-14T10:20:35;9.60;99.90
45945;DHT22;31655;48.972;10.686;2024-02-14T10:23:07;9.50;99.90
45945;DHT22;31655;48.972;10.686;2024-02-14T10:25:37;9.50;99.90
45945;DHT22;31655;48.972;10.686;2024-02-14T10:28:07;9.30;99.90
45945;DHT22;31655;48.972;10.686;2024-02-14T10:30:35;9.20;99.90
45945;DHT22;31655;48.972;10.686;2024-02-14T10:33:02;9.40;99.90
45945;DHT22;31655;48.972;10.686;2024-02-14T10:35:32;9.50;99.90
45945;DHT22;31655;48.972;10.686;2024-02-14T10:38:00;9.60;99.90
45945;DHT22;31655;48.972;10.686;2024-02-14T10:40:28;9.50;99.90
45945;DHT22;31655;48.972;10.686;2024-02-14T10:42:55;9.60;99.90
45945;DHT22;31655;48.972;10.686;2024-02-14T10:45:23;9.80;99.90
45945;DHT22;31655;48.972;10.686;2024-02-14T10:47:51;9.80;99.90
45945;DHT22;31655;48.972;10.686;2024-02-14T10:50:21;10.00;99.90
45945;DHT22;31655;48.972;10.686;2024-02-14T10:52:48;11.00;99.90
45945;DHT22;31655;48.972;10.686;2024-02-14T10:55:16;10.50;99.90
45945;DHT22;31655;48.972;10.686;2024-02-14T10:57:43;10.80;99.90
45945;DHT22;31655;48.972;10.686;2024-02-14T11:00:12;12.30;99.90
45945;DHT22;31655;48.972;10.686;2024-02-14T11:02:40;11.40;99.90
45945;DHT22;31655;48.972;10.686;2024-02-14T11:05:14;11.40;99.90
45945;DHT22;31655;48.972;10.686;2024-02-14T11:07:46;11.20;99.90
45945;DHT22;31655;48.972;10.686;2024-02-14T11:10:18;12.90;99.90
45945;DHT22;31655;48.972;10.686;2024-02-14T11:12:46;10.80;99.90
45945;DHT22;31655;48.972;10.686;2024-02-14T11:17:44;11.10;99.90
45945;DHT22;31655;48.972;10.686;2024-02-14T11:20:16;11.20;99.90
45945;DHT22;31655;48.972;10.686;2024-02-14T11:23:03;11.30;99.90
45945;DHT22;31655;48.972;10.686;2024-02-14T11:25:31;11.20;99.90
45945;DHT22;31655;48.972;10.686;2024-02-14T11:28:01;11.50;99.90
45945;DHT22;31655;48.972;10.686;2024-02-14T11:30:40;11.30;99.90
45945;DHT22;31655;48.972;10.686;2024-02-14T11:33:20;11.30;99.90
45945;DHT22;31655;48.972;10.686;2024-02-14T11:35:53;11.40;99.90
45945;DHT22;31655;48.972;10.686;2024-02-14T11:38:19;11.80;99.90
45945;DHT22;31655;48.972;10.686;2024-02-14T11:40:45;11.80;99.90
45945;DHT22;31655;48.972;10.686;2024-02-14T11:43:12;11.70;99.90
45945;DHT22;31655;48.972;10.686;2024-02-14T11:45:39;11.90;99.90
45945;DHT22;31655;48.972;10.686;2024-02-14T11:48:08;11.90;99.90
45945;DHT22;31655;48.972;10.686;2024-02-14T11:50:33;12.70;99.90
45945;DHT22;31655;48.972;10.686;2024-02-14T11:52:59;11.70;99.90
45945;DHT22;31655;48.972;10.686;2024-02-14T11:55:30;11.60;99.90
45945;DHT22;31655;48.972;10.686;2024-02-14T11:57:56;11.50;99.90
45945;DHT22;31655;48.972;10.686;2024-02-14T12:00:22;11.30;99.90
45945;DHT22;31655;48.972;10.686;2024-02-14T12:02:48;11.20;99.90
45945;DHT22;31655;48.972;10.686;2024-02-14T12:05:15;11.20;99.90
45945;DHT22;31655;48.972;10.686;2024-02-14T12:07:40;11.30;99.90
45945;DHT22;31655;48.972;10.686;2024-02-14T12:10:07;11.40;99.90
45945;DHT22;31655;48.972;10.686;2024-02-14T12:12:34;11.40;99.90
45945;DHT22;31655;48.972;10.686;2024-02-14T12:15:02;11.30;99.90
45945;DHT22;31655;48.972;10.686;2024-02-14T12:17:27;11.30;99.90
45945;DHT22;31655;48.972;10.686;2024-02-14T12:20:07;11.40;99.90
45945;DHT22;31655;48.972;10.686;2024-02-14T12:22:34;11.40;99.90
45945;DHT22;31655;48.972;10.686;2024-02-14T12:25:00;11.30;99.90
45945;DHT22;31655;48.972;10.686;2024-02-14T12:27:26;11.20;99.90
45945;DHT22;31655;48.972;10.686;2024-02-14T12:29:52;11.20;99.90
45945;DHT22;31655;48.972;10.686;2024-02-14T12:32:18;11.20;99.90
45945;DHT22;31655;48.972;10.686;2024-02-14T12:34:44;11.30;99.90
45945;DHT22;31655;48.972;10.686;2024-02-14T12:37:10;11.30;99.90
45945;DHT22;31655;48.972;10.686;2024-02-14T12:39:36;11.40;99.90
45945;DHT22;31655;48.972;10.686;2024-02-14T12:42:04;11.70;99.90
45945;DHT22;31655;48.972;10.686;2024-02-14T12:44:30;11.80;99.90
45945;DHT22;31655;48.972;10.686;2024-02-14T12:46:56;12.10;99.90
45945;DHT22;31655;48.972;10.686;2024-02-14T12:49:22;12.30;99.90
45945;DHT22;31655;48.972;10.686;2024-02-14T12:51:47;12.40;99.90
45945;DHT22;31655;48.972;10.686;2024-02-14T12:54:13;12.40;99.90
45945;DHT22;31655;48.972;10.686;2024-02-14T12:56:40;12.30;99.90
45945;DHT22;31655;48.972;10.686;2024-02-14T12:59:06;13.10;99.90
45945;DHT22;31655;48.972;10.686;2024-02-14T13:01:32;12.20;99.90
45945;DHT22;31655;48.972;10.686;2024-02-14T13:03:57;12.10;99.90
45945;DHT22;31655;48.972;10.686;2024-02-14T13:06:24;12.10;99.90
45945;DHT22;31655;48.972;10.686;2024-02-14T13:08:50;12.00;99.90
45945;DHT22;31655;48.972;10.686;2024-02-14T13:11:15;12.10;99.90
45945;DHT22;31655;48.972;10.686;2024-02-14T13:13:41;12.10;99.90
45945;DHT22;31655;48.972;10.686;2024-02-14T13:16:08;11.90;99.90
45945;DHT22;31655;48.972;10.686;2024-02-14T13:18:33;11.80;99.90
45945;DHT22;31655;48.972;10.686;2024-02-14T13:21:00;11.70;99.90
45945;DHT22;31655;48.972;10.686;2024-02-14T13:23:26;11.40;99.90
45945;DHT22;31655;48.972;10.686;2024-02-14T13:25:51;11.40;99.90
45945;DHT22;31655;48.972;10.686;2024-02-14T13:28:17;11.30;99.90
45945;DHT22;31655;48.972;10.686;2024-02-14T13:30:43;11.20;99.90
45945;DHT22;31655;48.972;10.686;2024-02-14T13:33:09;11.00;99.90
45945;DHT22;31655;48.972;10.686;2024-02-14T13:35:37;11.00;99.90
45945;DHT22;31655;48.972;10.686;2024-02-14T13:38:07;10.90;99.90
45945;DHT22;31655;48.972;10.686;2024-02-14T13:40:34;10.80;99.90
45945;DHT22;31655;48.972;10.686;2024-02-14T13:43:00;10.80;99.90
45945;DHT22;31655;48.972;10.686;2024-02-14T13:45:26;10.80;99.90
45945;DHT22;31655;48.972;10.686;2024-02-14T13:48:02;10.90;99.90
45945;DHT22;31655;48.972;10.686;2024-02-14T13:50:29;10.90;99.90
45945;DHT22;31655;48.972;10.686;2024-02-14T13:52:55;11.00;99.90
45945;DHT22;31655;48.972;10.686;2024-02-14T13:55:20;11.10;99.90
45945;DHT22;31655;48.972;10.686;2024-02-14T13:57:46;12.40;99.90
45945;DHT22;31655;48.972;10.686;2024-02-14T14:00:13;11.30;99.90
45945;DHT22;31655;48.972;10.686;2024-02-14T14:02:38;11.50;99.90
45945;DHT22;31655;48.972;10.686;2024-02-14T14:05:07;13.20;99.90
45945;DHT22;31655;48.972;10.686;2024-02-14T14:07:40;11.60;99.90
45945;DHT22;31655;48.972;10.686;2024-02-14T14:10:06;11.60;99.90
45945;DHT22;31655;48.972;10.686;2024-02-14T14:12:32;11.70;99.90
45945;DHT22;31655;48.972;10.686;2024-02-14T14:14:58;11.60;99.90
45945;DHT22;31655;48.972;10.686;2024-02-14T14:17:24;11.50;99.90
45945;DHT22;31655;48.972;10.686;2024-02-14T14:19:50;11.60;99.90
45945;DHT22;31655;48.972;10.686;2024-02-14T14:22:15;13.50;99.90
45945;DHT22;31655;48.972;10.686;2024-02-14T14:24:42;11.40;99.90
45945;DHT22;31655;48.972;10.686;2024-02-14T14:27:08;11.20;99.90
45945;DHT22;31655;48.972;10.686;2024-02-14T14:29:44;11.60;99.90
45945;DHT22;31655;48.972;10.686;2024-02-14T14:32:10;11.20;99.90
45945;DHT22;31655;48.972;10.686;2024-02-14T14:34:35;12.20;99.90
45945;DHT22;31655;48.972;10.686;2024-02-14T14:37:02;11.30;99.90
45945;DHT22;31655;48.972;10.686;2024-02-14T14:39:28;11.40;99.90
45945;DHT22;31655;48.972;10.686;2024-02-14T14:41:53;11.60;99.90
45945;DHT22;31655;48.972;10.686;2024-02-14T14:44:22;11.60;99.90
45945;DHT22;31655;48.972;10.686;2024-02-14T14:46:47;11.70;99.90
45945;DHT22;31655;48.972;10.686;2024-02-14T14:49:13;11.60;99.90
45945;DHT22;31655;48.972;10.686;2024-02-14T14:51:38;11.60;99.90
45945;DHT22;31655;48.972;10.686;2024-02-14T14:54:04;13.10;99.90
45945;DHT22;31655;48.972;10.686;2024-02-14T14:56:30;11.70;99.90
45945;DHT22;31655;48.972;10.686;2024-02-14T14:58:56;11.60;99.90
45945;DHT22;31655;48.972;10.686;2024-02-14T15:01:24;11.50;99.90
45945;DHT22;31655;48.972;10.686;2024-02-14T15:03:50;11.50;99.90
45945;DHT22;31655;48.972;10.686;2024-02-14T15:06:18;11.30;99.90
45945;DHT22;31655;48.972;10.686;2024-02-14T15:08:44;12.50;99.90
45945;DHT22;31655;48.972;10.686;2024-02-14T15:11:11;11.20;99.90
45945;DHT22;31655;48.972;10.686;2024-02-14T15:13:40;11.20;99.90
45945;DHT22;31655;48.972;10.686;2024-02-14T15:16:06;11.10;99.90
45945;DHT22;31655;48.972;10.686;2024-02-14T15:18:33;10.90;99.90
45945;DHT22;31655;48.972;10.686;2024-02-14T15:20:59;10.90;99.90
45945;DHT22;31655;48.972;10.686;2024-02-14T15:23:25;10.80;99.90
45945;DHT22;31655;48.972;10.686;2024-02-14T15:25:51;10.80;99.90
45945;DHT22;31655;48.972;10.686;2024-02-14T15:28:17;10.70;99.90
45945;DHT22;31655;48.972;10.686;2024-02-14T15:30:51;10.70;99.90
45945;DHT22;31655;48.972;10.686;2024-02-14T15:33:36;10.90;99.90
45945;DHT22;31655;48.972;10.686;2024-02-14T15:36:01;10.60;99.90
45945;DHT22;31655;48.972;10.686;2024-02-14T15:38:27;10.70;99.90